sensor_id;sensor_type;location;lat;lon;timestamp;P1;durP1;ratioP1;P2;durP2;ratioP2
19024;SDS011;9645;51.448;6.260;2022-12-10T00:01:21;47.50;;;14.60;;
19024;SDS011;9645;51.448;6.260;2022-12-10T00:03:48;50.72;;;14.90;;
19024;SDS011;9645;51.448;6.260;2022-12-10T00:06:16;39.88;;;13.95;;
19024;SDS011;9645;51.448;6.260;2022-12-10T00:08:45;48.00;;;13.85;;
19024;SDS011;9645;51.448;6.260;2022-12-10T00:11:13;50.65;;;15.80;;
19024;SDS011;9645;51.448;6.260;2022-12-10T00:13:42;51.53;;;15.00;;
19024;SDS011;9645;51.448;6.260;2022-12-10T00:16:12;57.20;;;14.45;;
19024;SDS011;9645;51.448;6.260;2022-12-10T00:18:41;46.38;;;14.43;;
19024;SDS011;9645;51.448;6.260;2022-12-10T00:21:09;40.58;;;12.60;;
19024;SDS011;9645;51.448;6.260;2022-12-10T00:23:37;47.40;;;13.85;;
19024;SDS011;9645;51.448;6.260;2022-12-10T00:26:04;56.80;;;15.07;;
19024;SDS011;9645;51.448;6.260;2022-12-10T00:28:33;51.28;;;13.60;;
19024;SDS011;9645;51.448;6.260;2022-12-10T00:31:03;38.75;;;14.00;;
19024;SDS011;9645;51.448;6.260;2022-12-10T00:33:33;40.42;;;12.13;;
19024;SDS011;9645;51.448;6.260;2022-12-10T00:36:01;51.08;;;14.43;;
19024;SDS011;9645;51.448;6.260;2022-12-10T00:38:29;50.60;;;15.00;;
19024;SDS011;9645;51.448;6.260;2022-12-10T00:40:56;46.90;;;14.88;;
19024;SDS011;9645;51.448;6.260;2022-12-10T00:43:23;45.60;;;14.30;;
19024;SDS011;9645;51.448;6.260;2022-12-10T00:45:50;61.67;;;15.02;;
19024;SDS011;9645;51.448;6.260;2022-12-10T00:48:17;47.83;;;14.00;;
19024;SDS011;9645;51.448;6.260;2022-12-10T00:50:55;46.97;;;13.13;;
19024;SDS011;9645;51.448;6.260;2022-12-10T00:53:23;49.17;;;13.93;;
19024;SDS011;9645;51.448;6.260;2022-12-10T00:55:51;55.22;;;15.15;;
19024;SDS011;9645;51.448;6.260;2022-12-10T00:58:18;40.45;;;13.50;;
19024;SDS011;9645;51.448;6.260;2022-12-10T01:00:46;48.45;;;13.50;;
19024;SDS011;9645;51.448;6.260;2022-12-10T01:03:13;53.15;;;15.25;;
19024;SDS011;9645;51.448;6.260;2022-12-10T01:05:41;57.83;;;16.00;;
19024;SDS011;9645;51.448;6.260;2022-12-10T01:08:09;49.38;;;14.45;;
19024;SDS011;9645;51.448;6.260;2022-12-10T01:10:36;46.33;;;14.00;;
19024;SDS011;9645;51.448;6.260;2022-12-10T01:13:03;49.40;;;15.60;;
19024;SDS011;9645;51.448;6.260;2022-12-10T01:15:30;43.78;;;13.77;;
19024;SDS011;9645;51.448;6.260;2022-12-10T01:17:58;47.70;;;14.35;;
19024;SDS011;9645;51.448;6.260;2022-12-10T01:20:25;51.22;;;14.60;;
19024;SDS011;9645;51.448;6.260;2022-12-10T01:22:52;51.85;;;15.02;;
19024;SDS011;9645;51.448;6.260;2022-12-10T01:25:20;47.03;;;14.68;;
19024;SDS011;9645;51.448;6.260;2022-12-10T01:27:47;49.15;;;14.23;;
19024;SDS011;9645;51.448;6.260;2022-12-10T01:30:14;52.35;;;15.02;;
19024;SDS011;9645;51.448;6.260;2022-12-10T01:32:42;44.47;;;12.55;;
19024;SDS011;9645;51.448;6.260;2022-12-10T01:35:09;40.55;;;13.43;;
19024;SDS011;9645;51.448;6.260;2022-12-10T01:37:36;48.20;;;14.40;;
19024;SDS011;9645;51.448;6.260;2022-12-10T01:40:03;48.90;;;15.38;;
19024;SDS011;9645;51.448;6.260;2022-12-10T01:42:32;52.17;;;15.77;;
19024;SDS011;9645;51.448;6.260;2022-12-10T01:45:01;53.20;;;15.45;;
19024;SDS011;9645;51.448;6.260;2022-12-10T01:47:31;48.53;;;14.02;;
19024;SDS011;9645;51.448;6.260;2022-12-10T01:49:58;54.30;;;13.77;;
19024;SDS011;9645;51.448;6.260;2022-12-10T01:52:27;51.78;;;14.65;;
19024;SDS011;9645;51.448;6.260;2022-12-10T01:54:54;42.55;;;14.98;;
19024;SDS011;9645;51.448;6.260;2022-12-10T01:57:22;47.55;;;13.43;;
19024;SDS011;9645;51.448;6.260;2022-12-10T02:00:13;51.35;;;14.38;;
19024;SDS011;9645;51.448;6.260;2022-12-10T02:02:42;62.67;;;15.98;;
19024;SDS011;9645;51.448;6.260;2022-12-10T02:05:15;50.53;;;16.05;;
19024;SDS011;9645;51.448;6.260;2022-12-10T02:07:54;54.10;;;15.80;;
19024;SDS011;9645;51.448;6.260;2022-12-10T02:10:30;53.35;;;14.68;;
19024;SDS011;9645;51.448;6.260;2022-12-10T02:13:08;61.25;;;15.70;;
19024;SDS011;9645;51.448;6.260;2022-12-10T02:15:42;60.65;;;16.60;;
19024;SDS011;9645;51.448;6.260;2022-12-10T02:18:13;46.47;;;14.35;;
19024;SDS011;9645;51.448;6.260;2022-12-10T02:20:46;51.28;;;16.35;;
19024;SDS011;9645;51.448;6.260;2022-12-10T02:23:16;47.10;;;14.63;;
19024;SDS011;9645;51.448;6.260;2022-12-10T02:25:49;65.22;;;14.80;;
19024;SDS011;9645;51.448;6.260;2022-12-10T02:28:23;47.55;;;13.90;;
19024;SDS011;9645;51.448;6.260;2022-12-10T02:30:59;56.78;;;16.35;;
19024;SDS011;9645;51.448;6.260;2022-12-10T02:33:27;57.88;;;15.77;;
19024;SDS011;9645;51.448;6.260;2022-12-10T02:35:56;54.38;;;15.38;;
19024;SDS011;9645;51.448;6.260;2022-12-10T02:38:25;52.88;;;15.27;;
19024;SDS011;9645;51.448;6.260;2022-12-10T02:40:57;56.90;;;14.00;;
19024;SDS011;9645;51.448;6.260;2022-12-10T02:43:27;53.97;;;14.50;;
19024;SDS011;9645;51.448;6.260;2022-12-10T02:45:56;54.17;;;15.35;;
19024;SDS011;9645;51.448;6.260;2022-12-10T02:48:27;51.25;;;15.05;;
19024;SDS011;9645;51.448;6.260;2022-12-10T02:50:56;55.05;;;14.52;;
19024;SDS011;9645;51.448;6.260;2022-12-10T02:53:23;51.17;;;15.38;;
19024;SDS011;9645;51.448;6.260;2022-12-10T02:55:55;54.45;;;15.27;;
19024;SDS011;9645;51.448;6.260;2022-12-10T02:58:35;55.35;;;14.25;;
19024;SDS011;9645;51.448;6.260;2022-12-10T03:01:18;64.60;;;15.10;;
19024;SDS011;9645;51.448;6.260;2022-12-10T03:03:54;50.20;;;14.85;;
19024;SDS011;9645;51.448;6.260;2022-12-10T03:06:27;46.53;;;13.40;;
19024;SDS011;9645;51.448;6.260;2022-12-10T03:09:01;47.65;;;14.90;;
19024;SDS011;9645;51.448;6.260;2022-12-10T03:11:32;51.75;;;14.73;;
19024;SDS011;9645;51.448;6.260;2022-12-10T03:14:00;58.67;;;18.33;;
19024;SDS011;9645;51.448;6.260;2022-12-10T03:16:34;62.42;;;16.70;;
19024;SDS011;9645;51.448;6.260;2022-12-10T03:19:05;71.60;;;17.67;;
19024;SDS011;9645;51.448;6.260;2022-12-10T03:21:37;53.30;;;16.92;;
19024;SDS011;9645;51.448;6.260;2022-12-10T03:24:07;53.60;;;17.17;;
19024;SDS011;9645;51.448;6.260;2022-12-10T03:26:36;60.33;;;17.25;;
19024;SDS011;9645;51.448;6.260;2022-12-10T03:29:05;60.53;;;16.42;;
19024;SDS011;9645;51.448;6.260;2022-12-10T03:31:36;58.20;;;16.00;;
19024;SDS011;9645;51.448;6.260;2022-12-10T03:34:05;67.65;;;16.48;;
19024;SDS011;9645;51.448;6.260;2022-12-10T03:36:34;45.38;;;14.75;;
19024;SDS011;9645;51.448;6.260;2022-12-10T03:39:02;50.40;;;15.23;;
19024;SDS011;9645;51.448;6.260;2022-12-10T03:41:30;64.35;;;16.70;;
19024;SDS011;9645;51.448;6.260;2022-12-10T03:43:58;65.75;;;18.20;;
19024;SDS011;9645;51.448;6.260;2022-12-10T03:46:26;57.53;;;16.27;;
19024;SDS011;9645;51.448;6.260;2022-12-10T03:48:57;59.33;;;16.67;;
19024;SDS011;9645;51.448;6.260;2022-12-10T03:51:25;53.50;;;15.18;;
19024;SDS011;9645;51.448;6.260;2022-12-10T03:53:52;63.08;;;16.90;;
19024;SDS011;9645;51.448;6.260;2022-12-10T03:56:19;61.22;;;17.08;;
19024;SDS011;9645;51.448;6.260;2022-12-10T03:58:47;66.03;;;17.70;;
19024;SDS011;9645;51.448;6.260;2022-12-10T04:01:14;57.25;;;16.80;;
19024;SDS011;9645;51.448;6.260;2022-12-10T04:03:41;63.85;;;17.23;;
19024;SDS011;9645;51.448;6.260;2022-12-10T04:06:12;67.40;;;16.70;;
19024;SDS011;9645;51.448;6.260;2022-12-10T04:08:41;57.10;;;16.35;;
19024;SDS011;9645;51.448;6.260;2022-12-10T04:11:08;70.22;;;18.25;;
19024;SDS011;9645;51.448;6.260;2022-12-10T04:13:36;69.70;;;17.77;;
19024;SDS011;9645;51.448;6.260;2022-12-10T04:16:22;59.47;;;18.10;;
19024;SDS011;9645;51.448;6.260;2022-12-10T04:18:53;53.75;;;16.80;;
19024;SDS011;9645;51.448;6.260;2022-12-10T04:21:22;63.00;;;16.25;;
19024;SDS011;9645;51.448;6.260;2022-12-10T04:24:07;65.15;;;17.83;;
19024;SDS011;9645;51.448;6.260;2022-12-10T04:26:52;66.20;;;18.10;;
19024;SDS011;9645;51.448;6.260;2022-12-10T04:29:21;80.95;;;18.25;;
19024;SDS011;9645;51.448;6.260;2022-12-10T04:31:48;60.00;;;18.33;;
19024;SDS011;9645;51.448;6.260;2022-12-10T04:34:15;80.93;;;18.67;;
19024;SDS011;9645;51.448;6.260;2022-12-10T04:36:44;70.75;;;19.00;;
19024;SDS011;9645;51.448;6.260;2022-12-10T04:39:11;68.55;;;18.67;;
19024;SDS011;9645;51.448;6.260;2022-12-10T04:41:39;91.43;;;22.15;;
19024;SDS011;9645;51.448;6.260;2022-12-10T04:44:06;63.83;;;20.13;;
19024;SDS011;9645;51.448;6.260;2022-12-10T04:46:33;84.55;;;20.10;;
19024;SDS011;9645;51.448;6.260;2022-12-10T04:49:01;77.28;;;19.00;;
19024;SDS011;9645;51.448;6.260;2022-12-10T04:51:29;74.63;;;17.77;;
19024;SDS011;9645;51.448;6.260;2022-12-10T04:53:57;64.93;;;17.88;;
19024;SDS011;9645;51.448;6.260;2022-12-10T04:56:25;71.28;;;18.38;;
19024;SDS011;9645;51.448;6.260;2022-12-10T04:58:52;71.35;;;16.83;;
19024;SDS011;9645;51.448;6.260;2022-12-10T05:01:19;68.03;;;18.88;;
19024;SDS011;9645;51.448;6.260;2022-12-10T05:03:46;74.10;;;19.90;;
19024;SDS011;9645;51.448;6.260;2022-12-10T05:06:14;71.70;;;19.20;;
19024;SDS011;9645;51.448;6.260;2022-12-10T05:08:42;71.60;;;18.88;;
19024;SDS011;9645;51.448;6.260;2022-12-10T05:11:11;84.50;;;19.58;;
19024;SDS011;9645;51.448;6.260;2022-12-10T05:13:39;60.83;;;17.38;;
19024;SDS011;9645;51.448;6.260;2022-12-10T05:16:08;81.05;;;21.48;;
19024;SDS011;9645;51.448;6.260;2022-12-10T05:18:36;83.40;;;20.83;;
19024;SDS011;9645;51.448;6.260;2022-12-10T05:21:04;70.55;;;17.60;;
19024;SDS011;9645;51.448;6.260;2022-12-10T05:23:33;76.85;;;19.27;;
19024;SDS011;9645;51.448;6.260;2022-12-10T05:26:04;74.32;;;18.55;;
19024;SDS011;9645;51.448;6.260;2022-12-10T05:28:34;83.53;;;19.75;;
19024;SDS011;9645;51.448;6.260;2022-12-10T05:31:03;81.78;;;20.10;;
19024;SDS011;9645;51.448;6.260;2022-12-10T05:33:30;76.68;;;18.92;;
19024;SDS011;9645;51.448;6.260;2022-12-10T05:35:58;88.10;;;20.63;;
19024;SDS011;9645;51.448;6.260;2022-12-10T05:38:27;76.03;;;20.42;;
19024;SDS011;9645;51.448;6.260;2022-12-10T05:41:00;83.70;;;21.60;;
19024;SDS011;9645;51.448;6.260;2022-12-10T05:43:28;76.18;;;19.70;;
19024;SDS011;9645;51.448;6.260;2022-12-10T05:45:59;79.30;;;20.13;;
19024;SDS011;9645;51.448;6.260;2022-12-10T05:48:27;82.38;;;20.35;;
19024;SDS011;9645;51.448;6.260;2022-12-10T05:50:54;91.57;;;21.95;;
19024;SDS011;9645;51.448;6.260;2022-12-10T05:53:21;81.07;;;20.52;;
19024;SDS011;9645;51.448;6.260;2022-12-10T05:55:48;75.00;;;19.85;;
19024;SDS011;9645;51.448;6.260;2022-12-10T05:58:16;80.18;;;20.50;;
19024;SDS011;9645;51.448;6.260;2022-12-10T06:00:43;84.47;;;21.30;;
19024;SDS011;9645;51.448;6.260;2022-12-10T06:03:11;90.95;;;23.00;;
19024;SDS011;9645;51.448;6.260;2022-12-10T06:05:38;97.50;;;21.13;;
19024;SDS011;9645;51.448;6.260;2022-12-10T06:08:06;98.45;;;21.77;;
19024;SDS011;9645;51.448;6.260;2022-12-10T06:10:34;73.35;;;20.67;;
19024;SDS011;9645;51.448;6.260;2022-12-10T06:13:01;88.40;;;20.42;;
19024;SDS011;9645;51.448;6.260;2022-12-10T06:15:28;104.13;;;23.55;;
19024;SDS011;9645;51.448;6.260;2022-12-10T06:17:56;80.30;;;20.98;;
19024;SDS011;9645;51.448;6.260;2022-12-10T06:20:24;77.95;;;20.00;;
19024;SDS011;9645;51.448;6.260;2022-12-10T06:22:52;87.75;;;22.05;;
19024;SDS011;9645;51.448;6.260;2022-12-10T06:25:20;105.18;;;24.05;;
19024;SDS011;9645;51.448;6.260;2022-12-10T06:27:47;98.05;;;22.33;;
19024;SDS011;9645;51.448;6.260;2022-12-10T06:30:14;94.43;;;23.85;;
19024;SDS011;9645;51.448;6.260;2022-12-10T06:32:41;98.72;;;22.48;;
19024;SDS011;9645;51.448;6.260;2022-12-10T06:35:09;81.45;;;18.73;;
19024;SDS011;9645;51.448;6.260;2022-12-10T06:37:37;93.25;;;22.00;;
19024;SDS011;9645;51.448;6.260;2022-12-10T06:40:05;93.53;;;22.92;;
19024;SDS011;9645;51.448;6.260;2022-12-10T06:42:33;98.32;;;22.40;;
19024;SDS011;9645;51.448;6.260;2022-12-10T06:45:00;106.93;;;23.45;;
19024;SDS011;9645;51.448;6.260;2022-12-10T06:47:27;104.68;;;23.55;;
19024;SDS011;9645;51.448;6.260;2022-12-10T06:49:54;106.32;;;23.17;;
19024;SDS011;9645;51.448;6.260;2022-12-10T06:52:22;97.43;;;21.75;;
19024;SDS011;9645;51.448;6.260;2022-12-10T06:54:50;109.30;;;22.27;;
19024;SDS011;9645;51.448;6.260;2022-12-10T06:57:19;118.68;;;25.85;;
19024;SDS011;9645;51.448;6.260;2022-12-10T06:59:46;91.25;;;23.25;;
19024;SDS011;9645;51.448;6.260;2022-12-10T07:02:13;106.32;;;23.85;;
19024;SDS011;9645;51.448;6.260;2022-12-10T07:04:40;132.57;;;25.08;;
19024;SDS011;9645;51.448;6.260;2022-12-10T07:07:09;138.85;;;27.05;;
19024;SDS011;9645;51.448;6.260;2022-12-10T07:09:39;115.22;;;24.98;;
19024;SDS011;9645;51.448;6.260;2022-12-10T07:12:07;94.38;;;22.92;;
19024;SDS011;9645;51.448;6.260;2022-12-10T07:14:34;115.18;;;23.73;;
19024;SDS011;9645;51.448;6.260;2022-12-10T07:17:02;109.55;;;25.80;;
19024;SDS011;9645;51.448;6.260;2022-12-10T07:19:30;99.95;;;25.70;;
19024;SDS011;9645;51.448;6.260;2022-12-10T07:21:57;103.35;;;22.70;;
19024;SDS011;9645;51.448;6.260;2022-12-10T07:24:24;110.00;;;23.85;;
19024;SDS011;9645;51.448;6.260;2022-12-10T07:26:52;109.45;;;24.45;;
19024;SDS011;9645;51.448;6.260;2022-12-10T07:29:21;100.25;;;23.75;;
19024;SDS011;9645;51.448;6.260;2022-12-10T07:31:48;121.25;;;24.92;;
19024;SDS011;9645;51.448;6.260;2022-12-10T07:34:15;100.88;;;24.40;;
19024;SDS011;9645;51.448;6.260;2022-12-10T07:36:43;104.10;;;24.42;;
19024;SDS011;9645;51.448;6.260;2022-12-10T07:39:10;112.88;;;24.80;;
19024;SDS011;9645;51.448;6.260;2022-12-10T07:41:42;126.07;;;30.13;;
19024;SDS011;9645;51.448;6.260;2022-12-10T07:44:10;103.80;;;24.80;;
19024;SDS011;9645;51.448;6.260;2022-12-10T07:46:40;97.13;;;24.02;;
19024;SDS011;9645;51.448;6.260;2022-12-10T07:49:07;114.93;;;26.10;;
19024;SDS011;9645;51.448;6.260;2022-12-10T07:51:34;121.32;;;25.30;;
19024;SDS011;9645;51.448;6.260;2022-12-10T07:54:01;90.45;;;23.70;;
19024;SDS011;9645;51.448;6.260;2022-12-10T07:56:29;90.43;;;22.33;;
19024;SDS011;9645;51.448;6.260;2022-12-10T07:58:56;110.88;;;28.23;;
19024;SDS011;9645;51.448;6.260;2022-12-10T08:01:23;109.40;;;25.17;;
19024;SDS011;9645;51.448;6.260;2022-12-10T08:03:53;103.50;;;22.73;;
19024;SDS011;9645;51.448;6.260;2022-12-10T08:06:22;121.72;;;25.75;;
19024;SDS011;9645;51.448;6.260;2022-12-10T08:08:51;108.75;;;24.35;;
19024;SDS011;9645;51.448;6.260;2022-12-10T08:11:19;92.95;;;22.65;;
19024;SDS011;9645;51.448;6.260;2022-12-10T08:13:47;109.20;;;23.42;;
19024;SDS011;9645;51.448;6.260;2022-12-10T08:16:15;115.57;;;25.30;;
19024;SDS011;9645;51.448;6.260;2022-12-10T08:18:43;99.07;;;24.60;;
19024;SDS011;9645;51.448;6.260;2022-12-10T08:21:12;129.38;;;27.27;;
19024;SDS011;9645;51.448;6.260;2022-12-10T08:23:40;118.72;;;27.35;;
19024;SDS011;9645;51.448;6.260;2022-12-10T08:26:09;131.82;;;27.00;;
19024;SDS011;9645;51.448;6.260;2022-12-10T08:28:37;103.60;;;24.52;;
19024;SDS011;9645;51.448;6.260;2022-12-10T08:31:05;121.85;;;25.85;;
19024;SDS011;9645;51.448;6.260;2022-12-10T08:33:34;97.75;;;25.20;;
19024;SDS011;9645;51.448;6.260;2022-12-10T08:36:02;110.72;;;23.98;;
19024;SDS011;9645;51.448;6.260;2022-12-10T08:38:31;103.90;;;23.38;;
19024;SDS011;9645;51.448;6.260;2022-12-10T08:40:59;83.60;;;22.58;;
19024;SDS011;9645;51.448;6.260;2022-12-10T08:43:32;105.28;;;23.40;;
19024;SDS011;9645;51.448;6.260;2022-12-10T08:45:59;99.03;;;22.88;;
19024;SDS011;9645;51.448;6.260;2022-12-10T08:48:27;97.15;;;23.27;;
19024;SDS011;9645;51.448;6.260;2022-12-10T08:50:54;96.90;;;24.95;;
19024;SDS011;9645;51.448;6.260;2022-12-10T08:53:21;95.88;;;22.50;;
19024;SDS011;9645;51.448;6.260;2022-12-10T08:55:50;115.25;;;23.40;;
19024;SDS011;9645;51.448;6.260;2022-12-10T08:58:18;98.93;;;23.67;;
19024;SDS011;9645;51.448;6.260;2022-12-10T09:00:45;93.07;;;22.60;;
19024;SDS011;9645;51.448;6.260;2022-12-10T09:03:13;104.22;;;24.30;;
19024;SDS011;9645;51.448;6.260;2022-12-10T09:05:40;99.18;;;22.95;;
19024;SDS011;9645;51.448;6.260;2022-12-10T09:08:09;116.65;;;25.30;;
19024;SDS011;9645;51.448;6.260;2022-12-10T09:10:36;108.38;;;25.65;;
19024;SDS011;9645;51.448;6.260;2022-12-10T09:13:05;98.47;;;22.40;;
19024;SDS011;9645;51.448;6.260;2022-12-10T09:15:32;107.75;;;23.42;;
19024;SDS011;9645;51.448;6.260;2022-12-10T09:18:00;99.68;;;23.38;;
19024;SDS011;9645;51.448;6.260;2022-12-10T09:20:27;99.72;;;23.77;;
19024;SDS011;9645;51.448;6.260;2022-12-10T09:22:54;109.25;;;25.02;;
19024;SDS011;9645;51.448;6.260;2022-12-10T09:25:22;107.13;;;26.20;;
19024;SDS011;9645;51.448;6.260;2022-12-10T09:27:49;107.50;;;27.02;;
19024;SDS011;9645;51.448;6.260;2022-12-10T09:30:18;100.95;;;23.88;;
19024;SDS011;9645;51.448;6.260;2022-12-10T09:32:46;84.38;;;21.77;;
19024;SDS011;9645;51.448;6.260;2022-12-10T09:35:14;96.75;;;22.13;;
19024;SDS011;9645;51.448;6.260;2022-12-10T09:37:42;102.65;;;23.50;;
19024;SDS011;9645;51.448;6.260;2022-12-10T09:40:09;103.55;;;24.35;;
19024;SDS011;9645;51.448;6.260;2022-12-10T09:42:42;100.85;;;21.92;;
19024;SDS011;9645;51.448;6.260;2022-12-10T09:45:20;92.63;;;22.02;;
19024;SDS011;9645;51.448;6.260;2022-12-10T09:47:54;119.07;;;25.27;;
19024;SDS011;9645;51.448;6.260;2022-12-10T09:50:29;105.95;;;25.60;;
19024;SDS011;9645;51.448;6.260;2022-12-10T09:53:01;102.65;;;24.35;;
19024;SDS011;9645;51.448;6.260;2022-12-10T09:55:31;101.07;;;24.27;;
19024;SDS011;9645;51.448;6.260;2022-12-10T09:58:01;116.63;;;25.50;;
19024;SDS011;9645;51.448;6.260;2022-12-10T10:00:34;118.88;;;23.27;;
19024;SDS011;9645;51.448;6.260;2022-12-10T10:03:03;116.95;;;24.05;;
19024;SDS011;9645;51.448;6.260;2022-12-10T10:05:32;103.95;;;26.15;;
19024;SDS011;9645;51.448;6.260;2022-12-10T10:08:02;115.13;;;25.63;;
19024;SDS011;9645;51.448;6.260;2022-12-10T10:10:32;105.55;;;23.67;;
19024;SDS011;9645;51.448;6.260;2022-12-10T10:13:09;128.90;;;26.23;;
19024;SDS011;9645;51.448;6.260;2022-12-10T10:15:43;115.15;;;24.60;;
19024;SDS011;9645;51.448;6.260;2022-12-10T10:18:14;93.50;;;24.25;;
19024;SDS011;9645;51.448;6.260;2022-12-10T10:20:49;110.03;;;25.67;;
19024;SDS011;9645;51.448;6.260;2022-12-10T10:23:17;103.95;;;25.00;;
19024;SDS011;9645;51.448;6.260;2022-12-10T10:25:44;98.85;;;23.52;;
19024;SDS011;9645;51.448;6.260;2022-12-10T10:28:12;84.60;;;21.35;;
19024;SDS011;9645;51.448;6.260;2022-12-10T10:30:45;106.20;;;23.95;;
19024;SDS011;9645;51.448;6.260;2022-12-10T10:33:13;117.10;;;26.80;;
19024;SDS011;9645;51.448;6.260;2022-12-10T10:35:42;118.32;;;26.08;;
19024;SDS011;9645;51.448;6.260;2022-12-10T10:38:13;133.57;;;25.52;;
19024;SDS011;9645;51.448;6.260;2022-12-10T10:40:45;104.60;;;24.10;;
19024;SDS011;9645;51.448;6.260;2022-12-10T10:43:15;118.75;;;25.77;;
19024;SDS011;9645;51.448;6.260;2022-12-10T10:45:53;91.88;;;23.35;;
19024;SDS011;9645;51.448;6.260;2022-12-10T10:48:24;88.53;;;21.17;;
19024;SDS011;9645;51.448;6.260;2022-12-10T10:50:53;102.50;;;23.88;;
19024;SDS011;9645;51.448;6.260;2022-12-10T10:53:22;121.80;;;25.52;;
19024;SDS011;9645;51.448;6.260;2022-12-10T10:55:56;107.10;;;22.38;;
19024;SDS011;9645;51.448;6.260;2022-12-10T10:58:25;105.82;;;23.42;;
19024;SDS011;9645;51.448;6.260;2022-12-10T11:00:58;111.82;;;24.25;;
19024;SDS011;9645;51.448;6.260;2022-12-10T11:03:27;91.25;;;24.77;;
19024;SDS011;9645;51.448;6.260;2022-12-10T11:05:57;136.48;;;26.13;;
19024;SDS011;9645;51.448;6.260;2022-12-10T11:08:25;100.47;;;23.80;;
19024;SDS011;9645;51.448;6.260;2022-12-10T11:10:57;99.10;;;22.58;;
19024;SDS011;9645;51.448;6.260;2022-12-10T11:13:28;105.38;;;22.85;;
19024;SDS011;9645;51.448;6.260;2022-12-10T11:15:59;103.63;;;27.40;;
19024;SDS011;9645;51.448;6.260;2022-12-10T11:18:36;112.35;;;23.88;;
19024;SDS011;9645;51.448;6.260;2022-12-10T11:21:06;93.93;;;22.33;;
19024;SDS011;9645;51.448;6.260;2022-12-10T11:23:42;142.25;;;26.52;;
19024;SDS011;9645;51.448;6.260;2022-12-10T11:26:17;112.97;;;25.05;;
19024;SDS011;9645;51.448;6.260;2022-12-10T11:28:57;126.72;;;27.15;;
19024;SDS011;9645;51.448;6.260;2022-12-10T11:31:39;118.80;;;26.23;;
19024;SDS011;9645;51.448;6.260;2022-12-10T11:34:19;109.88;;;24.85;;
19024;SDS011;9645;51.448;6.260;2022-12-10T11:37:07;127.18;;;26.23;;
19024;SDS011;9645;51.448;6.260;2022-12-10T11:40:02;106.72;;;24.75;;
19024;SDS011;9645;51.448;6.260;2022-12-10T11:42:43;112.25;;;26.33;;
19024;SDS011;9645;51.448;6.260;2022-12-10T11:45:20;120.03;;;25.80;;
19024;SDS011;9645;51.448;6.260;2022-12-10T11:48:00;113.07;;;25.67;;
19024;SDS011;9645;51.448;6.260;2022-12-10T11:50:39;115.68;;;25.40;;
19024;SDS011;9645;51.448;6.260;2022-12-10T11:53:20;94.97;;;25.58;;
19024;SDS011;9645;51.448;6.260;2022-12-10T11:56:03;108.72;;;25.33;;
19024;SDS011;9645;51.448;6.260;2022-12-10T11:58:52;109.70;;;25.55;;
19024;SDS011;9645;51.448;6.260;2022-12-10T12:01:36;83.38;;;24.00;;
19024;SDS011;9645;51.448;6.260;2022-12-10T12:04:26;94.60;;;24.13;;
19024;SDS011;9645;51.448;6.260;2022-12-10T12:10:18;112.03;;;26.63;;
19024;SDS011;9645;51.448;6.260;2022-12-10T12:13:08;103.80;;;26.42;;
19024;SDS011;9645;51.448;6.260;2022-12-10T12:15:38;94.22;;;24.58;;
19024;SDS011;9645;51.448;6.260;2022-12-10T12:18:11;116.55;;;25.48;;
19024;SDS011;9645;51.448;6.260;2022-12-10T12:20:44;96.60;;;24.13;;
19024;SDS011;9645;51.448;6.260;2022-12-10T12:23:15;108.50;;;27.83;;
19024;SDS011;9645;51.448;6.260;2022-12-10T12:25:46;118.97;;;25.92;;
19024;SDS011;9645;51.448;6.260;2022-12-10T12:28:15;125.75;;;25.60;;
19024;SDS011;9645;51.448;6.260;2022-12-10T12:30:51;121.75;;;27.08;;
19024;SDS011;9645;51.448;6.260;2022-12-10T12:33:26;116.45;;;26.98;;
19024;SDS011;9645;51.448;6.260;2022-12-10T12:36:00;108.50;;;24.25;;
19024;SDS011;9645;51.448;6.260;2022-12-10T12:38:32;110.80;;;25.58;;
19024;SDS011;9645;51.448;6.260;2022-12-10T12:41:10;98.88;;;25.75;;
19024;SDS011;9645;51.448;6.260;2022-12-10T12:43:44;104.88;;;24.05;;
19024;SDS011;9645;51.448;6.260;2022-12-10T12:46:19;103.15;;;23.85;;
19024;SDS011;9645;51.448;6.260;2022-12-10T12:48:54;100.10;;;23.73;;
19024;SDS011;9645;51.448;6.260;2022-12-10T12:51:29;114.78;;;27.00;;
19024;SDS011;9645;51.448;6.260;2022-12-10T12:53:58;103.55;;;25.35;;
19024;SDS011;9645;51.448;6.260;2022-12-10T12:56:28;94.30;;;24.80;;
19024;SDS011;9645;51.448;6.260;2022-12-10T12:59:10;93.82;;;22.90;;
19024;SDS011;9645;51.448;6.260;2022-12-10T13:01:43;93.25;;;23.42;;
19024;SDS011;9645;51.448;6.260;2022-12-10T13:04:16;97.00;;;24.42;;
19024;SDS011;9645;51.448;6.260;2022-12-10T13:07:08;92.13;;;23.38;;
19024;SDS011;9645;51.448;6.260;2022-12-10T13:10:08;102.07;;;22.27;;
19024;SDS011;9645;51.448;6.260;2022-12-10T13:12:51;93.97;;;22.52;;
19024;SDS011;9645;51.448;6.260;2022-12-10T13:15:34;95.32;;;23.13;;
19024;SDS011;9645;51.448;6.260;2022-12-10T13:18:18;117.15;;;24.45;;
19024;SDS011;9645;51.448;6.260;2022-12-10T13:21:19;107.25;;;22.10;;
19024;SDS011;9645;51.448;6.260;2022-12-10T13:24:04;84.97;;;21.35;;
19024;SDS011;9645;51.448;6.260;2022-12-10T13:26:34;101.85;;;23.25;;
19024;SDS011;9645;51.448;6.260;2022-12-10T13:29:11;107.28;;;24.38;;
19024;SDS011;9645;51.448;6.260;2022-12-10T13:31:54;84.32;;;22.77;;
19024;SDS011;9645;51.448;6.260;2022-12-10T13:34:31;92.32;;;23.10;;
19024;SDS011;9645;51.448;6.260;2022-12-10T13:37:04;81.72;;;22.27;;
19024;SDS011;9645;51.448;6.260;2022-12-10T13:39:59;94.20;;;24.50;;
19024;SDS011;9645;51.448;6.260;2022-12-10T13:42:33;75.32;;;22.52;;
19024;SDS011;9645;51.448;6.260;2022-12-10T13:45:29;112.63;;;26.38;;
19024;SDS011;9645;51.448;6.260;2022-12-10T13:51:12;101.53;;;24.02;;
19024;SDS011;9645;51.448;6.260;2022-12-10T13:57:01;102.20;;;23.77;;
19024;SDS011;9645;51.448;6.260;2022-12-10T13:59:41;89.93;;;22.23;;
19024;SDS011;9645;51.448;6.260;2022-12-10T14:02:23;97.35;;;22.75;;
19024;SDS011;9645;51.448;6.260;2022-12-10T14:05:12;99.53;;;21.85;;
19024;SDS011;9645;51.448;6.260;2022-12-10T14:07:50;104.72;;;25.00;;
19024;SDS011;9645;51.448;6.260;2022-12-10T14:10:22;102.30;;;23.40;;
19024;SDS011;9645;51.448;6.260;2022-12-10T14:13:00;121.20;;;25.20;;
19024;SDS011;9645;51.448;6.260;2022-12-10T14:15:30;103.70;;;23.15;;
19024;SDS011;9645;51.448;6.260;2022-12-10T14:18:02;82.25;;;21.95;;
19024;SDS011;9645;51.448;6.260;2022-12-10T14:20:33;122.32;;;24.00;;
19024;SDS011;9645;51.448;6.260;2022-12-10T14:23:02;100.80;;;22.33;;
19024;SDS011;9645;51.448;6.260;2022-12-10T14:25:48;108.75;;;23.38;;
19024;SDS011;9645;51.448;6.260;2022-12-10T14:28:17;94.05;;;21.65;;
19024;SDS011;9645;51.448;6.260;2022-12-10T14:30:45;96.05;;;23.88;;
19024;SDS011;9645;51.448;6.260;2022-12-10T14:33:14;99.55;;;22.25;;
19024;SDS011;9645;51.448;6.260;2022-12-10T14:35:46;109.47;;;25.20;;
19024;SDS011;9645;51.448;6.260;2022-12-10T14:38:16;114.15;;;23.17;;
19024;SDS011;9645;51.448;6.260;2022-12-10T14:40:45;104.70;;;24.20;;
19024;SDS011;9645;51.448;6.260;2022-12-10T14:43:13;97.25;;;23.80;;
19024;SDS011;9645;51.448;6.260;2022-12-10T14:45:45;93.50;;;23.92;;
19024;SDS011;9645;51.448;6.260;2022-12-10T14:48:16;90.97;;;20.55;;
19024;SDS011;9645;51.448;6.260;2022-12-10T14:50:43;94.03;;;21.00;;
19024;SDS011;9645;51.448;6.260;2022-12-10T14:53:11;97.93;;;23.08;;
19024;SDS011;9645;51.448;6.260;2022-12-10T14:55:42;87.15;;;21.25;;
19024;SDS011;9645;51.448;6.260;2022-12-10T14:58:13;94.53;;;19.05;;
19024;SDS011;9645;51.448;6.260;2022-12-10T15:00:44;92.80;;;23.17;;
19024;SDS011;9645;51.448;6.260;2022-12-10T15:03:16;105.18;;;23.10;;